createdAt,value
2017-05-07T00:00:32.327Z,12.56
2017-05-07T00:03:00.593Z,12.64
2017-05-07T00:05:27.975Z,13.40
2017-05-07T00:07:55.829Z,14.24
2017-05-07T00:10:23.176Z,12.84
2017-05-07T00:12:50.606Z,13.40
2017-05-07T00:15:17.948Z,13.44
2017-05-07T00:17:45.348Z,13.34
2017-05-07T00:20:15.885Z,14.26
2017-05-07T00:22:43.276Z,13.92
2017-05-07T00:25:10.688Z,15.64
2017-05-07T00:27:38.142Z,13.68
2017-05-07T00:30:05.519Z,14.50
2017-05-07T00:32:34.632Z,14.74
2017-05-07T00:35:02.188Z,14.50
2017-05-07T00:37:29.558Z,15.42
2017-05-07T00:39:59.933Z,15.12
2017-05-07T00:42:27.313Z,14.16
2017-05-07T00:44:54.786Z,14.64
2017-05-07T00:47:22.901Z,15.22
2017-05-07T00:49:50.231Z,14.00
2017-05-07T00:52:17.613Z,15.06
2017-05-07T00:54:44.962Z,14.12
2017-05-07T00:57:12.462Z,14.52
2017-05-07T00:59:39.829Z,14.66
2017-05-07T01:02:07.922Z,14.40
2017-05-07T01:04:35.513Z,14.10
2017-05-07T01:07:02.868Z,15.26
2017-05-07T01:09:30.246Z,15.28
2017-05-07T01:11:57.614Z,14.74
2017-05-07T01:14:26.106Z,15.98
2017-05-07T01:16:54.354Z,15.50
2017-05-07T01:19:21.887Z,15.58
2017-05-07T01:21:49.381Z,17.28
2017-05-07T01:24:16.775Z,15.60
2017-05-07T01:26:44.228Z,16.80
2017-05-07T01:29:11.725Z,16.48
2017-05-07T01:31:39.479Z,17.12
2017-05-07T01:34:06.838Z,16.98
2017-05-07T01:36:34.252Z,17.18
2017-05-07T01:39:01.660Z,18.20
2017-05-07T01:41:30.262Z,16.46
2017-05-07T01:43:57.809Z,18.08
2017-05-07T01:46:25.238Z,17.28
2017-05-07T01:48:52.843Z,17.02
2017-05-07T01:51:20.214Z,18.68
2017-05-07T01:53:47.676Z,18.02
2017-05-07T01:56:15.232Z,18.52
2017-05-07T01:58:42.665Z,18.64
2017-05-07T02:01:10.796Z,17.50
2017-05-07T02:03:38.152Z,18.38
2017-05-07T02:06:05.514Z,18.54
2017-05-07T02:08:32.861Z,17.76
2017-05-07T02:11:02.026Z,19.20
2017-05-07T02:13:29.400Z,19.30
2017-05-07T02:15:56.786Z,20.74
2017-05-07T02:18:24.287Z,18.50
2017-05-07T02:20:52.465Z,19.26
2017-05-07T02:23:20.541Z,20.08
2017-05-07T02:25:47.941Z,18.56
2017-05-07T02:28:16.597Z,18.02
2017-05-07T02:30:44.088Z,19.50
2017-05-07T02:33:12.246Z,18.86
2017-05-07T02:35:39.851Z,20.16
2017-05-07T02:38:08.098Z,19.98
2017-05-07T02:40:35.572Z,20.60
2017-05-07T02:43:03.963Z,20.42
2017-05-07T02:45:32.166Z,19.70
2017-05-07T02:47:59.799Z,22.20
2017-05-07T02:50:27.131Z,21.52
2017-05-07T02:52:54.581Z,22.04
2017-05-07T02:55:22.121Z,21.74
2017-05-07T02:57:49.594Z,21.68
2017-05-07T03:00:16.954Z,20.64
2017-05-07T03:02:46.337Z,21.90
2017-05-07T03:05:14.514Z,21.14
2017-05-07T03:07:42.155Z,20.82
2017-05-07T03:10:09.496Z,20.88
2017-05-07T03:12:36.877Z,21.76
2017-05-07T03:15:04.727Z,22.72
2017-05-07T03:17:32.247Z,23.50
2017-05-07T03:20:00.325Z,21.72
2017-05-07T03:22:28.735Z,24.50
2017-05-07T03:24:56.146Z,24.76
2017-05-07T03:27:24.277Z,23.80
2017-05-07T03:29:51.739Z,24.78
2017-05-07T03:32:19.165Z,23.56
2017-05-07T03:34:46.668Z,21.66
2017-05-07T03:37:15.058Z,22.10
2017-05-07T03:39:43.277Z,22.40
2017-05-07T03:42:10.675Z,20.82
2017-05-07T03:44:38.037Z,21.10
2017-05-07T03:47:06.424Z,19.12
2017-05-07T03:49:33.849Z,21.22
2017-05-07T03:52:01.502Z,23.80
2017-05-07T03:54:28.939Z,20.96
2017-05-07T03:56:56.366Z,18.50
2017-05-07T03:59:25.108Z,19.40
2017-05-07T04:01:52.556Z,19.96
2017-05-07T04:04:20.023Z,18.88
2017-05-07T04:06:47.391Z,20.07
2017-05-07T04:09:15.649Z,21.20
2017-05-07T04:11:43.027Z,21.52
2017-05-07T04:14:33.038Z,22.34
2017-05-07T04:17:00.467Z,23.58
2017-05-07T04:19:27.877Z,21.32
2017-05-07T04:21:55.302Z,21.07
2017-05-07T04:24:24.215Z,21.06
2017-05-07T04:26:51.618Z,20.37
2017-05-07T04:29:19.546Z,20.90
2017-05-07T04:31:47.900Z,20.78
2017-05-07T04:34:15.991Z,22.93
2017-05-07T04:36:43.390Z,22.98
2017-05-07T04:39:10.791Z,25.97
2017-05-07T04:41:38.160Z,24.08
2017-05-07T04:44:05.544Z,23.95
2017-05-07T04:46:33.020Z,25.50
2017-05-07T04:49:02.154Z,25.12
2017-05-07T04:51:29.517Z,26.38
2017-05-07T04:53:56.964Z,28.80
2017-05-07T04:56:24.531Z,29.80
2017-05-07T04:58:51.919Z,31.67
2017-05-07T05:01:20.267Z,31.10
2017-05-07T05:03:47.654Z,32.80
2017-05-07T05:06:15.080Z,32.02
2017-05-07T05:08:42.436Z,35.60
2017-05-07T05:11:09.865Z,34.50
2017-05-07T05:13:37.232Z,31.40
2017-05-07T05:16:04.661Z,33.45
2017-05-07T05:18:33.087Z,35.23
2017-05-07T05:21:11.017Z,36.16
2017-05-07T05:24:15.133Z,36.97
2017-05-07T05:26:46.245Z,36.72
2017-05-07T05:32:18.310Z,40.05
2017-05-07T05:34:45.703Z,40.85
2017-05-07T05:37:13.530Z,39.40
2017-05-07T05:39:40.924Z,42.52
2017-05-07T05:42:08.493Z,44.78
2017-05-07T05:44:42.932Z,45.80
2017-05-07T05:47:11.118Z,44.20
2017-05-07T05:49:39.295Z,41.57
2017-05-07T05:52:07.179Z,44.18
2017-05-07T05:54:34.567Z,42.35
2017-05-07T05:57:02.063Z,42.20
2017-05-07T05:59:30.508Z,40.18
2017-05-07T06:01:57.898Z,41.14
2017-05-07T06:04:26.650Z,43.02
2017-05-07T06:06:54.114Z,40.77
2017-05-07T06:09:21.539Z,41.22
2017-05-07T06:11:49.215Z,43.40
2017-05-07T06:14:16.725Z,42.78
2017-05-07T06:16:44.443Z,40.96
2017-05-07T06:19:12.100Z,57.50
2017-05-07T06:21:39.532Z,41.64
2017-05-07T06:24:07.220Z,39.72
2017-05-07T06:26:34.689Z,40.60
2017-05-07T06:29:02.904Z,38.44
2017-05-07T06:31:30.447Z,38.82
2017-05-07T06:33:58.082Z,40.12
2017-05-07T06:36:25.571Z,43.20
2017-05-07T06:38:53.019Z,41.16
2017-05-07T06:41:20.416Z,39.48
2017-05-07T06:43:47.874Z,35.20
2017-05-07T06:46:15.282Z,35.88
2017-05-07T06:48:43.652Z,34.42
2017-05-07T06:51:11.945Z,32.96
2017-05-07T06:53:39.338Z,31.20
2017-05-07T06:56:06.761Z,32.38
2017-05-07T06:58:34.916Z,29.48
2017-05-07T07:01:02.584Z,29.44
2017-05-07T07:03:30.954Z,29.34
2017-05-07T07:05:59.178Z,27.38
2017-05-07T07:08:27.654Z,29.22
2017-05-07T07:10:55.073Z,29.46
2017-05-07T07:13:23.295Z,30.32
2017-05-07T07:15:50.745Z,30.96
2017-05-07T07:18:18.238Z,31.34
2017-05-07T07:20:45.656Z,31.90
2017-05-07T07:23:14.174Z,31.18
2017-05-07T07:25:41.544Z,34.10
2017-05-07T07:28:09.716Z,31.54
2017-05-07T07:30:37.150Z,34.46
2017-05-07T07:33:06.692Z,36.84
2017-05-07T07:35:34.978Z,36.68
2017-05-07T07:38:02.421Z,36.28
2017-05-07T07:40:30.778Z,35.64
2017-05-07T07:42:59.069Z,36.02
2017-05-07T07:45:28.015Z,36.56
2017-05-07T07:47:56.329Z,35.54
2017-05-07T07:50:23.898Z,34.76
2017-05-07T07:52:52.109Z,36.14
2017-05-07T07:55:19.564Z,35.74
2017-05-07T07:57:47.023Z,36.66
2017-05-07T08:00:14.936Z,35.28
2017-05-07T08:02:42.413Z,34.60
2017-05-07T08:05:10.651Z,34.02
2017-05-07T08:07:38.189Z,36.18
2017-05-07T08:10:05.993Z,34.70
2017-05-07T08:12:33.765Z,32.10
2017-05-07T08:15:03.238Z,32.68
2017-05-07T08:17:30.917Z,32.28
2017-05-07T08:19:58.382Z,32.66
2017-05-07T08:22:28.189Z,30.48
2017-05-07T08:24:56.112Z,89.72
2017-05-07T08:27:24.382Z,35.70
2017-05-07T08:29:52.093Z,33.10
2017-05-07T08:32:19.721Z,31.86
2017-05-07T08:34:47.189Z,31.34
2017-05-07T08:37:20.598Z,31.60
2017-05-07T08:39:49.042Z,31.04
2017-05-07T08:42:16.606Z,32.32
2017-05-07T08:44:45.306Z,32.20
2017-05-07T08:47:12.881Z,30.16
2017-05-07T08:49:40.438Z,29.34
2017-05-07T08:52:07.951Z,28.32
2017-05-07T08:54:35.632Z,31.34
2017-05-07T08:57:03.038Z,27.72
2017-05-07T08:59:31.097Z,28.62
2017-05-07T09:01:58.517Z,26.36
2017-05-07T09:04:25.958Z,26.82
2017-05-07T09:06:53.496Z,26.16
2017-05-07T09:09:21.712Z,23.24
2017-05-07T09:12:05.364Z,23.54
2017-05-07T09:14:49.439Z,105.50
2017-05-07T09:17:49.707Z,27.72
2017-05-07T09:20:32.698Z,25.94
2017-05-07T09:23:00.754Z,28.72
2017-05-07T09:25:28.954Z,24.60
2017-05-07T09:27:56.513Z,25.18
2017-05-07T09:30:25.149Z,20.12
2017-05-07T09:32:53.224Z,18.94
2017-05-07T09:35:20.781Z,19.56
2017-05-07T09:37:49.352Z,18.14
2017-05-07T09:40:17.129Z,19.88
2017-05-07T09:42:44.883Z,17.76
2017-05-07T09:45:13.155Z,14.94
2017-05-07T09:47:42.386Z,14.66
2017-05-07T09:50:10.620Z,13.50
2017-05-07T09:52:38.186Z,14.30
2017-05-07T09:55:06.481Z,13.98
2017-05-07T09:57:34.718Z,13.50
2017-05-07T10:00:02.819Z,13.66
2017-05-07T10:02:31.044Z,14.68
2017-05-07T10:04:58.748Z,16.80
2017-05-07T10:07:26.666Z,18.40
2017-05-07T10:09:55.287Z,18.16
2017-05-07T10:12:23.051Z,19.82
2017-05-07T10:14:50.600Z,20.10
2017-05-07T10:17:18.180Z,19.70
2017-05-07T10:19:45.835Z,22.24
2017-05-07T10:22:13.403Z,23.36
2017-05-07T10:24:41.041Z,22.22
2017-05-07T10:27:09.770Z,21.98
2017-05-07T10:29:38.148Z,20.96
2017-05-07T10:32:06.648Z,18.98
2017-05-07T10:34:34.499Z,15.84
2017-05-07T10:37:02.741Z,16.52
2017-05-07T10:39:30.253Z,16.06
2017-05-07T10:41:57.929Z,14.50
2017-05-07T10:44:25.458Z,15.20
2017-05-07T10:46:53.757Z,14.56
2017-05-07T10:49:21.279Z,17.10
2017-05-07T10:51:48.985Z,55.52
2017-05-07T10:54:31.382Z,140.34
2017-05-07T10:56:58.939Z,16.56
2017-05-07T10:59:27.513Z,15.74
2017-05-07T11:01:56.921Z,71.18
2017-05-07T11:04:24.644Z,17.64
2017-05-07T11:06:52.188Z,16.00
2017-05-07T11:09:20.903Z,15.00
2017-05-07T11:11:49.173Z,1999.90
2017-05-07T11:14:17.038Z,1999.90
2017-05-07T11:16:44.573Z,1999.90
2017-05-07T11:19:12.703Z,1999.90
2017-05-07T11:21:40.621Z,12.98
2017-05-07T11:24:08.133Z,1999.90
2017-05-07T11:26:35.679Z,1999.90
2017-05-07T11:29:04.200Z,1999.90
2017-05-07T11:31:33.045Z,1999.90
2017-05-07T11:34:00.684Z,413.66
2017-05-07T11:36:29.106Z,1999.90
2017-05-07T11:38:59.991Z,1999.90
2017-05-07T11:41:27.986Z,1999.90
2017-05-07T11:43:55.687Z,1999.90
2017-05-07T11:46:23.441Z,1999.90
2017-05-07T11:48:51.007Z,13.86
2017-05-07T11:51:18.586Z,13.28
2017-05-07T11:53:46.093Z,13.64
2017-05-07T11:56:15.210Z,10.92
